Arabia, OH

7:18 AM EDT on August 28, 2014 (GMT -0400)
Flatwoods y | Change Station
CLOSE
Current Station
Personal Weather Station
Location: Flatwoods,, KY
Elevation: 656 ft
Nearby Weather Stations

Elev 656 ft 38.52 °N, 82.71 °W | Updated 10 minutes ago

Mostly Cloudy
Mostly Cloudy
69.8 °F
Feels Like 69.8 °F
N
0.0
Wind Variable Wind from NNE

Today
High -- | Low -- °F
--% Chance of Precip.
Yesterday
High -- | Low -- °F
Precip. -- in
6:56 AM 8:06 PM
Waxing Crescent, 7% visible
Pressure 30.06 in
Visibility 6.0 miles
Clouds Overcast 700 ft
Dew Point 69 °F
Humidity 96%
Rainfall 0.01 in
Snow Depth Not available.
UV 0 out of 12
Pollen 9.90 out of 12
Air Quality Not available.
Flu Activity Not available.
SPECI KHTS 281058Z 05004KT 6SM BR OVC007 21/21 A3006 RMK AO2 T02110206

More Conditions Fewer Conditions

Pressure 30.06 in
Visibility 6.0 miles
Clouds Overcast 700 ft
Dew Point 69 °F
Humidity 96%
Rainfall 0.01 in
Snow Depth Not available.
UV 0 out of 12
Pollen 9.90 out of 12
Air Quality Not available.
Flu Activity Not available.
SPECI KHTS 281058Z 05004KT 6SM BR OVC007 21/21 A3006 RMK AO2 T02110206

More Conditions Fewer Conditions

10-Day Weather Forecast

Almanac

Astronomy

Aug. 28, 2014 Rise Set
Actual Time 6:56 AM EDT 8:06 PM EDT
Civil Twilight 6:28 AM EDT 8:34 PM EDT
Nautical Twilight 5:55 AM EDT 9:06 PM EDT
Astronomical Twilight 5:21 AM EDT 9:40 PM EDT
Moon 9:45 AM EDT 9:32 PM EDT
Length of Visible Light 14h 05m
Length of Day
13h 10m
Tomorrow will be 2m 22s shorter.
Waxing Crescent, 7% of the Moon is Illuminated
Today
Waxing Crescent
Sep 2
First Quarter
Sep 8
Full
Sep 15
Last Quarter
Sep 24
New

Today's Extremes

State Highs State Lows

Community

WunderPhotos

Upload Photos

1,747,923 photos uploaded!

Nearby

Snow Depth

Station Depth Elevation
No new snow has been reported.

Earthquake Activity

City Distance Mag. Time & Date
No recent earthquake activity has been reported nearby.
Minimum magnitude displayed is 2.5.

Coastal Water Temperatures

Place Temperature
No Stations Reporting

Nearby Weather Stations